Maria — SV7156 — position and weather

sailwx.info

Track history (hours):
 
Tides and Currents Weather Stations Pressure Air Temp Water Temp Dewpoint Dewpoint Depression Visibility Wind Speed Wind Dir Waves Ship Positions

Maria

Last reported at 2015-Jul-11 13:25 UTC. Time now 2015-Jul-30 14:12 UTC.
Position N 37°58' E 023°35'.
Warning: this ship's position is 19 days out of date.

Length 74 m; draft 4.5 m.

Type: Ship. MMSI: 237493000.

Date/timePositionNaut miles runAvg speedWind from/ knotsBaromVisibWave heightAir tempDewpointWater temp
2015-Jul-11 13:25N 37°58' E 023°35'0 0.0
2015-Jul-11 12:33N 37°58' E 023°35'2 2.2
2015-Jul-11 11:33N 37°55' E 023°34'2 2.5
2015-Jul-11 10:33N 37°54' E 023°32'0 0.0
2015-Jul-11 09:33N 37°54' E 023°32'0 0.0
2015-Jul-11 08:33N 37°54' E 023°32'0 0.3
2015-Jul-11 07:33N 37°53' E 023°32'3 0.2
2015-Jul-10 14:33N 37°56' E 023°34'1 0.7
2015-Jul-10 13:33N 37°55' E 023°33'0 0.0
2015-Jul-10 12:33N 37°55' E 023°33'0 0.0
2015-Jul-10 11:34N 37°55' E 023°33'0 0.0
2015-Jul-10 10:33N 37°55' E 023°33'0 0.0
2015-Jul-10 09:33N 37°55' E 023°33'2 1.7
2015-Jul-10 08:33N 37°57' E 023°35'1 0.9
2015-Jul-10 07:33N 37°58' E 023°35'3 2.8
2015-Jul-10 06:32N 38°00' E 023°33'2 2.1
2015-Jul-10 05:24N 38°02' E 023°36'0 0.0
2015-Jul-10 04:33N 38°02' E 023°36'0 0.0
2015-Jul-10 03:06N 38°02' E 023°36'0 0.0
2015-Jul-10 02:14N 38°02' E 023°36'0 0.0
2015-Jul-10 01:31N 38°02' E 023°36'1 0.9
2015-Jul-10 00:33N 38°01' E 023°35'0 0.0
2015-Jul-09 23:33N 38°01' E 023°35'0 0.0
2015-Jul-09 22:33N 38°01' E 023°35'0 0.0
2015-Jul-09 21:33N 38°01' E 023°35'0 0.0
2015-Jul-09 20:33N 38°01' E 023°35'0 0.0
2015-Jul-09 19:31N 38°01' E 023°35'0 0.1
2015-Jul-09 18:33N 38°02' E 023°35'4 3.9
2015-Jul-09 17:33N 37°58' E 023°35'1 0.0
2015-Jul-08 21:33N 37°57' E 023°35'0 0.3
2015-Jul-08 20:33N 37°57' E 023°35'0 0.0
2015-Jul-08 19:33N 37°57' E 023°35'0 0.0
2015-Jul-08 18:33N 37°57' E 023°35'0 0.0
2015-Jul-08 17:33N 37°57' E 023°35'0 0.0
2015-Jul-08 16:33N 37°57' E 023°35'0 0.4
2015-Jul-08 15:33N 37°58' E 023°35'0 0.0
2015-Jul-08 06:33N 37°58' E 023°35'0 0.0
2015-Jul-08 05:33N 37°58' E 023°35'0 0.0
2015-Jul-08 04:33N 37°58' E 023°35'4 3.6
2015-Jul-08 03:33N 38°01' E 023°35'1 0.8
2015-Jul-08 02:33N 38°02' E 023°36'0 0.0
2015-Jul-08 01:33N 38°02' E 023°36'0 0.0
2015-Jul-08 00:32N 38°02' E 023°36'0 0.0
2015-Jul-07 23:32N 38°02' E 023°36'0 0.0
2015-Jul-07 22:18N 38°02' E 023°36'0 0.0
2015-Jul-07 21:27N 38°02' E 023°36'0 0.1
2015-Jul-07 20:33N 38°02' E 023°36'1 0.9
2015-Jul-07 19:33N 38°01' E 023°35'0 0.2
2015-Jul-07 18:33N 38°01' E 023°34'4 0.2
2015-Jul-07 00:16N 37°58' E 023°35'1 1.3
2015-Jul-06 23:33N 37°57' E 023°36'0 0.0
2015-Jul-06 22:33N 37°57' E 023°36'0 0.0
2015-Jul-06 21:33N 37°57' E 023°36'0 0.0
2015-Jul-06 20:33N 37°57' E 023°36'0 0.4
2015-Jul-06 19:33N 37°57' E 023°36'1 1.1
2015-Jul-06 18:33N 37°58' E 023°35'0 0.0
2015-Jul-06 17:33N 37°58' E 023°35'0 0.0
2015-Jul-05 07:34N 37°58' E 023°35'4 4.3
2015-Jul-05 06:33N 38°02' E 023°36'0 0.0
2015-Jul-05 05:33N 38°02' E 023°36'0 0.0
2015-Jul-05 04:31N 38°02' E 023°36'0 0.0
2015-Jul-05 03:26N 38°02' E 023°36'0 0.0
2015-Jul-05 02:33N 38°02' E 023°36'1 0.9
2015-Jul-05 01:33N 38°01' E 023°35'0 0.0
2015-Jul-05 00:33N 38°01' E 023°35'0 0.0
2015-Jul-04 23:28N 38°01' E 023°35'0 0.0
2015-Jul-04 22:32N 38°01' E 023°35'0 0.0
2015-Jul-04 21:32N 38°01' E 023°35'0 0.0
2015-Jul-04 20:27N 38°01' E 023°35'0 0.0
2015-Jul-04 19:33N 38°01' E 023°35'0 0.0
2015-Jul-04 18:33N 38°01' E 023°35'4 4.1
2015-Jul-04 17:34N 37°57' E 023°34'1 1.2
2015-Jul-04 16:34N 37°57' E 023°36'0 0.0
2015-Jul-04 15:33N 37°57' E 023°36'0 0.0
2015-Jul-04 14:33N 37°57' E 023°36'0 0.0
2015-Jul-04 13:33N 37°57' E 023°36'0 0.0
2015-Jul-04 12:33N 37°57' E 023°36'1 1.1
2015-Jul-04 11:34N 37°58' E 023°35'0 0.0
2015-Jul-04 10:33N 37°58' E 023°35'2 2.0
2015-Jul-04 09:33N 37°56' E 023°34'1 0.9
2015-Jul-04 08:33N 37°55' E 023°34'0 0.0
2015-Jul-04 07:33N 37°55' E 023°34'0 0.0
2015-Jul-04 06:34N 37°55' E 023°34'0 0.0
2015-Jul-04 05:33N 37°55' E 023°34'3 2.6
2015-Jul-04 04:34N 37°57' E 023°35'0 0.0
2015-Jul-03 11:33N 37°58' E 023°35'0 0.0
2015-Jul-03 10:33N 37°58' E 023°35'1 0.8
2015-Jul-03 09:33N 37°57' E 023°35'5 5.4
2015-Jul-03 08:33N 37°52' E 023°31'0 0.0
2015-Jul-03 07:33N 37°52' E 023°31'0 0.0
2015-Jul-03 06:33N 37°52' E 023°31'0 0.1
2015-Jul-03 05:33N 37°52' E 023°31'5 5.5
2015-Jul-03 04:33N 37°57' E 023°34'5 0.8
2015-Jul-02 22:33N 38°02' E 023°36'0 0.0
2015-Jul-02 18:16N 38°02' E 023°36'1 1.9
2015-Jul-02 17:33N 38°01' E 023°34'6 5.9
2015-Jul-02 16:33N 37°55' E 023°34'1 0.8
2015-Jul-02 15:33N 37°54' E 023°34'0 0.0
2015-Jul-02 14:33N 37°54' E 023°34'0 0.0
2015-Jul-02 13:33N 37°54' E 023°34'2 2.2
2015-Jul-02 12:33N 37°53' E 023°32'0 0.0
2015-Jul-02 11:33N 37°53' E 023°31'0 0.1
2015-Jul-02 10:33N 37°53' E 023°32'0 0.0
2015-Jul-02 09:33N 37°53' E 023°32'0 0.0
2015-Jul-02 08:33N 37°53' E 023°32'5 0.3
2015-Jul-01 17:33N 37°57' E 023°33'5 1.2
2015-Jul-01 13:32N 38°02' E 023°36'  
Track history (hours):
 
Tides and Currents Weather Stations Pressure Air Temp Water Temp Dewpoint Dewpoint Depression Visibility Wind Speed Wind Dir Waves Ship Positions

Maria

Last reported at 2015-Jul-11 13:25 UTC. Time now 2015-Jul-30 14:12 UTC.
Position N 37°58' E 023°35'.
Warning: this ship's position is 19 days out of date.

Length 74 m; draft 4.5 m.

Type: Ship. MMSI: 237493000.

Date/timePositionNaut miles runAvg speedWind from/ knotsBaromVisibWave heightAir tempDewpointWater temp
2015-Jul-11 13:25N 37°58' E 023°35'0 0.0
2015-Jul-11 12:33N 37°58' E 023°35'2 2.2
2015-Jul-11 11:33N 37°55' E 023°34'2 2.5
2015-Jul-11 10:33N 37°54' E 023°32'0 0.0
2015-Jul-11 09:33N 37°54' E 023°32'0 0.0
2015-Jul-11 08:33N 37°54' E 023°32'0 0.3
2015-Jul-11 07:33N 37°53' E 023°32'3 0.2
2015-Jul-10 14:33N 37°56' E 023°34'1 0.7
2015-Jul-10 13:33N 37°55' E 023°33'0 0.0
2015-Jul-10 12:33N 37°55' E 023°33'0 0.0
2015-Jul-10 11:34N 37°55' E 023°33'0 0.0
2015-Jul-10 10:33N 37°55' E 023°33'0 0.0
2015-Jul-10 09:33N 37°55' E 023°33'2 1.7
2015-Jul-10 08:33N 37°57' E 023°35'1 0.9
2015-Jul-10 07:33N 37°58' E 023°35'3 2.8
2015-Jul-10 06:32N 38°00' E 023°33'2 2.1
2015-Jul-10 05:24N 38°02' E 023°36'0 0.0
2015-Jul-10 04:33N 38°02' E 023°36'0 0.0
2015-Jul-10 03:06N 38°02' E 023°36'0 0.0
2015-Jul-10 02:14N 38°02' E 023°36'0 0.0
2015-Jul-10 01:31N 38°02' E 023°36'1 0.9
2015-Jul-10 00:33N 38°01' E 023°35'0 0.0
2015-Jul-09 23:33N 38°01' E 023°35'0 0.0
2015-Jul-09 22:33N 38°01' E 023°35'0 0.0
2015-Jul-09 21:33N 38°01' E 023°35'0 0.0
2015-Jul-09 20:33N 38°01' E 023°35'0 0.0
2015-Jul-09 19:31N 38°01' E 023°35'0 0.1
2015-Jul-09 18:33N 38°02' E 023°35'4 3.9
2015-Jul-09 17:33N 37°58' E 023°35'1 0.0
2015-Jul-08 21:33N 37°57' E 023°35'0 0.3
2015-Jul-08 20:33N 37°57' E 023°35'0 0.0
2015-Jul-08 19:33N 37°57' E 023°35'0 0.0
2015-Jul-08 18:33N 37°57' E 023°35'0 0.0
2015-Jul-08 17:33N 37°57' E 023°35'0 0.0
2015-Jul-08 16:33N 37°57' E 023°35'0 0.4
2015-Jul-08 15:33N 37°58' E 023°35'0 0.0
2015-Jul-08 06:33N 37°58' E 023°35'0 0.0
2015-Jul-08 05:33N 37°58' E 023°35'0 0.0
2015-Jul-08 04:33N 37°58' E 023°35'4 3.6
2015-Jul-08 03:33N 38°01' E 023°35'1 0.8
2015-Jul-08 02:33N 38°02' E 023°36'0 0.0
2015-Jul-08 01:33N 38°02' E 023°36'0 0.0
2015-Jul-08 00:32N 38°02' E 023°36'0 0.0
2015-Jul-07 23:32N 38°02' E 023°36'0 0.0
2015-Jul-07 22:18N 38°02' E 023°36'0 0.0
2015-Jul-07 21:27N 38°02' E 023°36'0 0.1
2015-Jul-07 20:33N 38°02' E 023°36'1 0.9
2015-Jul-07 19:33N 38°01' E 023°35'0 0.2
2015-Jul-07 18:33N 38°01' E 023°34'4 0.2
2015-Jul-07 00:16N 37°58' E 023°35'1 1.3
2015-Jul-06 23:33N 37°57' E 023°36'0 0.0
2015-Jul-06 22:33N 37°57' E 023°36'0 0.0
2015-Jul-06 21:33N 37°57' E 023°36'0 0.0
2015-Jul-06 20:33N 37°57' E 023°36'0 0.4
2015-Jul-06 19:33N 37°57' E 023°36'1 1.1
2015-Jul-06 18:33N 37°58' E 023°35'0 0.0
2015-Jul-06 17:33N 37°58' E 023°35'0 0.0
2015-Jul-05 07:34N 37°58' E 023°35'4 4.3
2015-Jul-05 06:33N 38°02' E 023°36'0 0.0
2015-Jul-05 05:33N 38°02' E 023°36'0 0.0
2015-Jul-05 04:31N 38°02' E 023°36'0 0.0
2015-Jul-05 03:26N 38°02' E 023°36'0 0.0
2015-Jul-05 02:33N 38°02' E 023°36'1 0.9
2015-Jul-05 01:33N 38°01' E 023°35'0 0.0
2015-Jul-05 00:33N 38°01' E 023°35'0 0.0
2015-Jul-04 23:28N 38°01' E 023°35'0 0.0
2015-Jul-04 22:32N 38°01' E 023°35'0 0.0
2015-Jul-04 21:32N 38°01' E 023°35'0 0.0
2015-Jul-04 20:27N 38°01' E 023°35'0 0.0
2015-Jul-04 19:33N 38°01' E 023°35'0 0.0
2015-Jul-04 18:33N 38°01' E 023°35'4 4.1
2015-Jul-04 17:34N 37°57' E 023°34'1 1.2
2015-Jul-04 16:34N 37°57' E 023°36'0 0.0
2015-Jul-04 15:33N 37°57' E 023°36'0 0.0
2015-Jul-04 14:33N 37°57' E 023°36'0 0.0
2015-Jul-04 13:33N 37°57' E 023°36'0 0.0
2015-Jul-04 12:33N 37°57' E 023°36'1 1.1
2015-Jul-04 11:34N 37°58' E 023°35'0 0.0
2015-Jul-04 10:33N 37°58' E 023°35'2 2.0
2015-Jul-04 09:33N 37°56' E 023°34'1 0.9
2015-Jul-04 08:33N 37°55' E 023°34'0 0.0
2015-Jul-04 07:33N 37°55' E 023°34'0 0.0
2015-Jul-04 06:34N 37°55' E 023°34'0 0.0
2015-Jul-04 05:33N 37°55' E 023°34'3 2.6
2015-Jul-04 04:34N 37°57' E 023°35'0 0.0
2015-Jul-03 11:33N 37°58' E 023°35'0 0.0
2015-Jul-03 10:33N 37°58' E 023°35'1 0.8
2015-Jul-03 09:33N 37°57' E 023°35'5 5.4
2015-Jul-03 08:33N 37°52' E 023°31'0 0.0
2015-Jul-03 07:33N 37°52' E 023°31'0 0.0
2015-Jul-03 06:33N 37°52' E 023°31'0 0.1
2015-Jul-03 05:33N 37°52' E 023°31'5 5.5
2015-Jul-03 04:33N 37°57' E 023°34'5 0.8
2015-Jul-02 22:33N 38°02' E 023°36'0 0.0
2015-Jul-02 18:16N 38°02' E 023°36'1 1.9
2015-Jul-02 17:33N 38°01' E 023°34'6 5.9
2015-Jul-02 16:33N 37°55' E 023°34'1 0.8
2015-Jul-02 15:33N 37°54' E 023°34'0 0.0
2015-Jul-02 14:33N 37°54' E 023°34'0 0.0
2015-Jul-02 13:33N 37°54' E 023°34'2 2.2
2015-Jul-02 12:33N 37°53' E 023°32'0 0.0
2015-Jul-02 11:33N 37°53' E 023°31'0 0.1
2015-Jul-02 10:33N 37°53' E 023°32'0 0.0
2015-Jul-02 09:33N 37°53' E 023°32'0 0.0
2015-Jul-02 08:33N 37°53' E 023°32'5 0.3
2015-Jul-01 17:33N 37°57' E 023°33'5 1.2
2015-Jul-01 13:32N 38°02' E 023°36'  

Dump ship's entire track history